createdAt,value
2022-10-17T00:00:23.154Z,101791.97
2022-10-17T00:03:25.284Z,101785.63
2022-10-17T00:06:27.151Z,101784.41
2022-10-17T00:09:29.291Z,101788.53
2022-10-17T00:12:31.197Z,101789.63
2022-10-17T00:15:33.449Z,101794.66
2022-10-17T00:18:35.294Z,101793.13
2022-10-17T00:21:37.518Z,101796.81
2022-10-17T00:24:39.377Z,101796.50
2022-10-17T00:27:42.298Z,101793.84
2022-10-17T00:30:44.198Z,101794.34
2022-10-17T00:33:46.954Z,101789.16
2022-10-17T00:36:50.597Z,101792.16
2022-10-17T00:39:53.826Z,101789.03
2022-10-17T00:42:55.709Z,101795.41
2022-10-17T00:45:57.926Z,101790.13
2022-10-17T00:49:01.571Z,101792.78
2022-10-17T00:52:06.093Z,101799.25
2022-10-17T00:55:11.852Z,101800.88
2022-10-17T00:58:14.056Z,101789.66
2022-10-17T01:01:17.248Z,101788.06
2022-10-17T01:04:19.555Z,101789.50
2022-10-17T01:07:22.109Z,101784.12
2022-10-17T01:10:29.772Z,101790.34
2022-10-17T01:13:44.743Z,101793.09
2022-10-17T01:17:15.973Z,101786.84
2022-10-17T01:20:17.811Z,101789.03
2022-10-17T01:23:20.174Z,101788.50
2022-10-17T01:26:40.105Z,101790.91
2022-10-17T01:29:48.440Z,101789.50
2022-10-17T01:33:06.439Z,101786.37
2022-10-17T01:36:11.359Z,101789.13
2022-10-17T01:39:13.201Z,101786.37
2022-10-17T01:42:18.476Z,101788.03
2022-10-17T01:45:46.916Z,101783.97
2022-10-17T01:48:49.085Z,101784.19
2022-10-17T01:52:02.787Z,101787.00
2022-10-17T01:55:08.119Z,101782.56
2022-10-17T01:58:12.927Z,101784.44
2022-10-17T02:01:15.767Z,101789.81
2022-10-17T02:04:18.243Z,101792.47
2022-10-17T02:07:20.220Z,101797.06
2022-10-17T02:10:41.096Z,101795.56
2022-10-17T02:13:51.403Z,101790.34
2022-10-17T02:16:59.287Z,101792.06
2022-10-17T02:20:02.574Z,101792.66
2022-10-17T02:23:22.022Z,101799.19
2022-10-17T02:26:36.555Z,101788.28
2022-10-17T02:29:48.917Z,101795.56
2022-10-17T02:33:02.883Z,101805.09
2022-10-17T02:36:07.416Z,101805.47
2022-10-17T02:39:09.956Z,101805.97
2022-10-17T02:42:13.389Z,101804.75
2022-10-17T02:45:15.875Z,101808.28
2022-10-17T02:48:36.574Z,101815.53
2022-10-17T02:51:38.816Z,101812.97
2022-10-17T02:54:47.694Z,101821.50
2022-10-17T02:57:53.091Z,101823.63
2022-10-17T03:00:55.054Z,101823.03
2022-10-17T03:04:08.654Z,101823.75
2022-10-17T03:07:10.720Z,101823.75
2022-10-17T03:10:15.180Z,101832.50
2022-10-17T03:13:17.726Z,101822.22
2022-10-17T03:16:20.177Z,101830.31
2022-10-17T03:19:22.355Z,101828.50
2022-10-17T03:22:26.538Z,101829.94
2022-10-17T03:25:29.810Z,101830.88
2022-10-17T03:28:33.216Z,101839.09
2022-10-17T03:31:35.837Z,101845.72
2022-10-17T03:34:38.335Z,101847.19
2022-10-17T03:37:40.749Z,101847.75
2022-10-17T03:40:42.914Z,101853.91
2022-10-17T03:43:44.930Z,101860.94
2022-10-17T03:46:47.339Z,101860.72
2022-10-17T03:49:50.185Z,101859.50
2022-10-17T03:52:52.366Z,101864.84
2022-10-17T03:55:54.530Z,101870.16
2022-10-17T03:58:58.039Z,101871.84
2022-10-17T04:01:59.922Z,101873.72
2022-10-17T04:05:02.921Z,101875.16
2022-10-17T04:08:05.074Z,101868.56
2022-10-17T04:11:14.962Z,101876.66
2022-10-17T04:14:17.560Z,101874.22
2022-10-17T04:17:20.054Z,101883.31
2022-10-17T04:20:22.165Z,101877.78
2022-10-17T04:23:26.447Z,101890.31
2022-10-17T04:26:30.844Z,101893.63
2022-10-17T04:29:33.053Z,101899.22
2022-10-17T04:32:39.133Z,101891.09
2022-10-17T04:35:41.767Z,101895.63
2022-10-17T04:38:43.855Z,101896.00
2022-10-17T04:41:46.098Z,101898.72
2022-10-17T04:44:48.027Z,101899.94
2022-10-17T04:47:50.930Z,101900.16
2022-10-17T04:51:03.268Z,101900.22
2022-10-17T04:54:06.519Z,101906.59
2022-10-17T04:57:09.217Z,101898.00
2022-10-17T05:00:11.780Z,101908.31
2022-10-17T05:03:15.389Z,101904.59
2022-10-17T05:06:21.920Z,101913.59
2022-10-17T05:09:25.862Z,101915.09
2022-10-17T05:12:28.564Z,101922.69
2022-10-17T05:15:30.989Z,101920.97
2022-10-17T05:18:33.778Z,101933.06
2022-10-17T05:21:37.328Z,101926.06
2022-10-17T05:24:40.018Z,101929.50
2022-10-17T05:27:41.930Z,101926.19
2022-10-17T05:30:44.217Z,101944.59
2022-10-17T05:33:46.426Z,101948.87
2022-10-17T05:36:48.845Z,101946.88
2022-10-17T05:39:51.710Z,101955.25
2022-10-17T05:42:54.268Z,101957.44
2022-10-17T05:45:56.514Z,101959.00
2022-10-17T05:48:58.890Z,101965.03
2022-10-17T05:52:01.614Z,101966.66
2022-10-17T05:55:05.481Z,101964.16
2022-10-17T05:58:07.494Z,101980.41
2022-10-17T06:01:12.812Z,101983.16
2022-10-17T06:04:15.479Z,101988.25
2022-10-17T06:07:18.254Z,101988.75
2022-10-17T06:10:20.532Z,101990.59
2022-10-17T06:13:23.324Z,102000.47
2022-10-17T06:16:25.860Z,101996.03
2022-10-17T06:19:27.903Z,102014.03
2022-10-17T06:22:30.424Z,102010.66
2022-10-17T06:25:33.085Z,102017.06
2022-10-17T06:28:36.651Z,102017.06
2022-10-17T06:31:38.823Z,102025.03
2022-10-17T06:34:41.525Z,102023.41
2022-10-17T06:37:44.366Z,102025.19
2022-10-17T06:40:50.145Z,102030.78
2022-10-17T06:43:52.376Z,102032.50
2022-10-17T06:46:56.133Z,102044.25
2022-10-17T06:49:58.046Z,102044.38
2022-10-17T06:53:00.291Z,102046.09
2022-10-17T06:56:07.052Z,102050.63
2022-10-17T06:59:11.588Z,102054.91
2022-10-17T07:02:13.818Z,102050.31
2022-10-17T07:05:19.141Z,102053.94
2022-10-17T07:08:21.460Z,102056.94
2022-10-17T07:11:24.163Z,102058.47
2022-10-17T07:14:31.949Z,102066.56
2022-10-17T07:17:34.402Z,102060.09
2022-10-17T07:20:36.823Z,102070.59
2022-10-17T07:23:39.847Z,102070.19
2022-10-17T07:26:41.984Z,102067.25
2022-10-17T07:29:44.421Z,102072.12
2022-10-17T07:32:46.571Z,102066.81
2022-10-17T07:35:49.466Z,102072.19
2022-10-17T07:38:51.481Z,102071.75
2022-10-17T07:41:54.261Z,102067.28
2022-10-17T07:44:57.101Z,102069.97
2022-10-17T07:48:00.980Z,102064.13
2022-10-17T07:51:08.253Z,102078.81
2022-10-17T07:54:10.514Z,102064.81
2022-10-17T07:57:12.554Z,102069.38
2022-10-17T08:00:14.837Z,102075.84
2022-10-17T08:03:18.453Z,102078.91
2022-10-17T08:06:20.649Z,102082.06
2022-10-17T08:09:22.960Z,102085.56
2022-10-17T08:12:25.964Z,102087.75
2022-10-17T08:15:31.744Z,102084.53
2022-10-17T08:18:34.718Z,102097.44
2022-10-17T08:21:37.193Z,102091.16
2022-10-17T08:24:39.120Z,102091.53
2022-10-17T08:27:41.284Z,102103.72
2022-10-17T08:30:43.247Z,102092.16
2022-10-17T08:33:46.220Z,102094.56
2022-10-17T08:36:48.132Z,102093.69
2022-10-17T08:39:50.473Z,102093.16
2022-10-17T08:43:14.258Z,102092.25
2022-10-17T08:46:16.924Z,102095.63
2022-10-17T08:49:34.150Z,102090.34
2022-10-17T08:52:51.776Z,102085.81
2022-10-17T08:55:54.560Z,102090.13
2022-10-17T08:58:56.785Z,102089.59
2022-10-17T09:02:01.695Z,102091.13
2022-10-17T09:05:26.817Z,102091.25
2022-10-17T09:08:35.443Z,102091.25
2022-10-17T09:11:58.021Z,102084.53
2022-10-17T09:15:19.682Z,102092.34
2022-10-17T09:18:22.234Z,102095.44
2022-10-17T09:21:30.223Z,102090.38
2022-10-17T09:24:32.367Z,102086.53
2022-10-17T09:27:36.511Z,102085.91
2022-10-17T09:31:01.289Z,102089.53
2022-10-17T09:34:05.278Z,102082.94
2022-10-17T09:37:11.332Z,102088.19
2022-10-17T09:40:18.033Z,102090.25
2022-10-17T09:43:20.290Z,102089.97
2022-10-17T09:50:23.250Z,102089.81
2022-10-17T09:54:09.292Z,102085.91
2022-10-17T09:57:12.235Z,102081.88
2022-10-17T10:00:20.554Z,102086.03
2022-10-17T10:03:22.869Z,102084.31
2022-10-17T10:06:24.790Z,102081.63
2022-10-17T10:09:28.688Z,102084.31
2022-10-17T10:12:32.222Z,102080.03
2022-10-17T10:19:27.398Z,102078.88
2022-10-17T10:22:42.884Z,102073.00
2022-10-17T10:25:55.629Z,102073.06
2022-10-17T10:29:00.369Z,102070.75
2022-10-17T10:32:22.453Z,102072.66
2022-10-17T10:35:35.588Z,102069.88
2022-10-17T10:38:40.116Z,102068.16
2022-10-17T10:41:47.419Z,102064.13
2022-10-17T10:44:50.409Z,102060.00
2022-10-17T10:47:54.573Z,102064.69
2022-10-17T10:51:03.410Z,102058.44
2022-10-17T10:54:20.073Z,102057.78
2022-10-17T10:57:25.587Z,102057.06
2022-10-17T11:00:29.137Z,102054.63
2022-10-17T11:03:36.034Z,102058.53
2022-10-17T11:06:41.568Z,102048.50
2022-10-17T11:09:54.062Z,102045.19
2022-10-17T11:12:56.322Z,102046.03
2022-10-17T11:15:58.228Z,102050.63
2022-10-17T11:19:23.549Z,102039.72
2022-10-17T11:22:28.321Z,102050.22
2022-10-17T11:25:36.036Z,102036.44
2022-10-17T11:28:38.072Z,102031.84
2022-10-17T11:31:46.630Z,102037.31
2022-10-17T11:34:54.285Z,102033.66
2022-10-17T11:38:03.802Z,102025.25
2022-10-17T11:45:07.808Z,102018.00
2022-10-17T11:48:17.500Z,102014.13
2022-10-17T11:54:45.718Z,102018.34
2022-10-17T11:58:00.065Z,102011.56
2022-10-17T12:01:24.623Z,102013.81
2022-10-17T12:04:50.238Z,102011.16
2022-10-17T12:08:08.383Z,102012.72
2022-10-17T12:11:13.456Z,102002.13
2022-10-17T12:14:38.461Z,101995.56
2022-10-17T12:17:43.903Z,101997.50
2022-10-17T12:20:56.270Z,101998.28
2022-10-17T12:23:58.580Z,101988.06
2022-10-17T12:27:19.195Z,101979.41
2022-10-17T12:30:25.882Z,101978.03
2022-10-17T12:33:31.687Z,101984.22
2022-10-17T12:36:33.851Z,101976.59
2022-10-17T12:39:38.481Z,101973.44
2022-10-17T12:42:48.322Z,101969.31
2022-10-17T12:45:57.101Z,101969.97
2022-10-17T12:49:00.869Z,101969.66
2022-10-17T12:52:18.141Z,101967.28
2022-10-17T12:55:24.652Z,101966.44
2022-10-17T12:58:26.985Z,101961.84
2022-10-17T13:01:31.502Z,101965.97
2022-10-17T13:04:36.200Z,101963.28
2022-10-17T13:07:41.213Z,101956.81
2022-10-17T13:10:47.039Z,101961.16
2022-10-17T13:13:52.459Z,101961.81
2022-10-17T13:16:59.065Z,101949.88
2022-10-17T13:20:01.763Z,101951.47
2022-10-17T13:23:04.180Z,101948.44
2022-10-17T13:26:12.465Z,101940.44
2022-10-17T13:29:15.514Z,101949.81
2022-10-17T13:32:17.712Z,101941.25
2022-10-17T13:35:55.357Z,101950.09
2022-10-17T13:38:53.450Z,101948.63
2022-10-17T13:41:56.580Z,101947.31
2022-10-17T13:44:59.073Z,101943.06
2022-10-17T13:48:03.278Z,101943.28
2022-10-17T13:51:10.315Z,101939.44
2022-10-17T13:54:32.022Z,101936.97
2022-10-17T13:57:34.360Z,101943.28
2022-10-17T14:00:36.628Z,101941.84
2022-10-17T14:03:48.354Z,101944.25
2022-10-17T14:06:52.497Z,101942.22
2022-10-17T14:09:54.902Z,101945.44
2022-10-17T14:12:57.274Z,101932.47
2022-10-17T14:16:01.399Z,101935.19
2022-10-17T14:19:04.222Z,101931.31
2022-10-17T14:22:15.480Z,101923.06
2022-10-17T14:25:29.883Z,101927.91
2022-10-17T14:28:32.148Z,101928.91
2022-10-17T14:31:35.666Z,101919.66
2022-10-17T14:34:40.443Z,101918.41
2022-10-17T14:37:47.657Z,101930.66
2022-10-17T14:41:09.603Z,101926.72
2022-10-17T14:44:21.659Z,101934.63
2022-10-17T14:51:06.783Z,101926.69
2022-10-17T14:54:44.287Z,101927.06
2022-10-17T14:57:46.491Z,101930.88
2022-10-17T15:00:48.698Z,101925.63
2022-10-17T15:03:52.926Z,101928.16
2022-10-17T15:06:55.406Z,101925.09
2022-10-17T15:09:57.447Z,101923.94
2022-10-17T15:13:27.231Z,101927.94
2022-10-17T15:16:26.003Z,101929.03
2022-10-17T15:19:28.190Z,101934.00
2022-10-17T15:22:31.521Z,101925.84
2022-10-17T15:25:34.451Z,101936.91
2022-10-17T15:28:36.413Z,101934.38
2022-10-17T15:31:38.613Z,101928.53
2022-10-17T15:34:41.158Z,101942.34
2022-10-17T15:37:43.866Z,101942.13
2022-10-17T15:40:48.873Z,101942.13
2022-10-17T15:43:51.270Z,101943.22
2022-10-17T15:46:53.805Z,101944.19
2022-10-17T15:49:56.462Z,101948.34
2022-10-17T15:52:59.212Z,101957.56
2022-10-17T15:56:02.161Z,101956.81
2022-10-17T15:59:05.372Z,101954.56
2022-10-17T16:02:14.690Z,101958.41
2022-10-17T16:05:19.134Z,101956.88
2022-10-17T16:08:21.019Z,101966.53
2022-10-17T16:11:23.194Z,101963.22
2022-10-17T16:14:25.075Z,101967.12
2022-10-17T16:17:28.714Z,101970.69
2022-10-17T16:20:32.011Z,101969.53
2022-10-17T16:23:34.167Z,101975.09
2022-10-17T16:26:36.074Z,101973.94
2022-10-17T16:29:38.265Z,101979.94
2022-10-17T16:32:40.542Z,101976.41
2022-10-17T16:35:42.754Z,101977.06
2022-10-17T16:38:45.212Z,101970.62
2022-10-17T16:41:47.512Z,101977.81
2022-10-17T16:44:50.044Z,101983.59
2022-10-17T16:47:53.176Z,101977.16
2022-10-17T16:50:55.071Z,101980.34
2022-10-17T16:54:00.097Z,101991.12
2022-10-17T16:57:02.554Z,101988.88
2022-10-17T17:00:06.015Z,101986.63
2022-10-17T17:03:07.938Z,101984.47
2022-10-17T17:06:12.549Z,101990.25
2022-10-17T17:09:14.759Z,101987.44
2022-10-17T17:12:17.005Z,101995.78
2022-10-17T17:15:18.906Z,101986.28
2022-10-17T17:18:21.167Z,101988.19
2022-10-17T17:21:23.206Z,102000.88
2022-10-17T17:24:25.575Z,102001.25
2022-10-17T17:27:29.528Z,101996.50
2022-10-17T17:30:35.042Z,102002.16
2022-10-17T17:33:37.611Z,101998.16
2022-10-17T17:36:40.124Z,102003.69
2022-10-17T17:39:42.410Z,102005.78
2022-10-17T17:42:44.711Z,102000.03
2022-10-17T17:45:46.961Z,102000.44
2022-10-17T17:48:49.915Z,101999.00
2022-10-17T17:51:51.827Z,101996.44
2022-10-17T17:54:54.162Z,102003.88
2022-10-17T17:57:56.636Z,101998.53
2022-10-17T18:00:59.201Z,102009.50
2022-10-17T18:04:01.464Z,102005.50
2022-10-17T18:07:03.446Z,102006.63
2022-10-17T18:10:06.232Z,102002.25
2022-10-17T18:13:08.295Z,102004.44
2022-10-17T18:16:13.948Z,102001.88
2022-10-17T18:19:16.151Z,102003.97
2022-10-17T18:22:18.568Z,101999.16
2022-10-17T18:25:20.509Z,101997.53
2022-10-17T18:28:23.574Z,101995.72
2022-10-17T18:31:28.420Z,102002.19
2022-10-17T18:34:30.670Z,101995.44
2022-10-17T18:37:32.690Z,101994.00
2022-10-17T18:40:34.961Z,102002.00
2022-10-17T18:43:37.554Z,101999.81
2022-10-17T18:46:43.611Z,101995.91
2022-10-17T18:49:45.588Z,101998.06
2022-10-17T18:52:48.481Z,102003.88
2022-10-17T18:55:50.879Z,102004.44
2022-10-17T18:58:53.362Z,102002.41
2022-10-17T19:01:55.394Z,102003.53
2022-10-17T19:04:57.681Z,102000.41
2022-10-17T19:07:59.571Z,102001.19
2022-10-17T19:11:08.794Z,102000.88
2022-10-17T19:14:14.797Z,102006.19
2022-10-17T19:17:16.999Z,102002.47
2022-10-17T19:20:19.059Z,102010.47
2022-10-17T19:23:21.215Z,102004.28
2022-10-17T19:26:23.606Z,102005.69
2022-10-17T19:29:27.580Z,102008.09
2022-10-17T19:32:29.734Z,102006.28
2022-10-17T19:35:32.322Z,101997.03
2022-10-17T19:38:34.609Z,102001.62
2022-10-17T19:41:36.906Z,101995.72
2022-10-17T19:44:38.896Z,101995.87
2022-10-17T19:47:41.107Z,102001.22
2022-10-17T19:50:43.962Z,101999.50
2022-10-17T19:53:46.694Z,101995.31
2022-10-17T19:56:48.597Z,101994.34
2022-10-17T19:59:53.673Z,101996.75
2022-10-17T20:02:57.984Z,101997.56
2022-10-17T20:06:00.227Z,101999.63
2022-10-17T20:09:02.734Z,102004.00
2022-10-17T20:12:07.764Z,102004.94
2022-10-17T20:15:09.964Z,102000.31
2022-10-17T20:18:12.176Z,102005.56
2022-10-17T20:21:15.518Z,102011.12
2022-10-17T20:24:17.906Z,102006.41
2022-10-17T20:27:22.199Z,102008.31
2022-10-17T20:30:27.867Z,102006.16
2022-10-17T20:33:31.938Z,101999.16
2022-10-17T20:36:37.086Z,101997.53
2022-10-17T20:39:39.408Z,102010.47
2022-10-17T20:42:41.578Z,102011.16
2022-10-17T20:45:50.881Z,102007.13
2022-10-17T20:48:54.764Z,102004.28
2022-10-17T20:51:56.884Z,102007.03
2022-10-17T20:54:59.074Z,102005.63
2022-10-17T20:58:01.064Z,102003.50
2022-10-17T21:01:10.109Z,102007.13
2022-10-17T21:04:45.383Z,102007.72
2022-10-17T21:07:34.525Z,102006.16
2022-10-17T21:10:36.434Z,101996.56
2022-10-17T21:13:38.810Z,102004.59
2022-10-17T21:16:41.467Z,102007.47
2022-10-17T21:19:43.680Z,102004.88
2022-10-17T21:22:45.652Z,102002.87
2022-10-17T21:25:47.800Z,102005.06
2022-10-17T21:28:50.141Z,102006.00
2022-10-17T21:31:52.749Z,102002.72
2022-10-17T21:34:54.709Z,102001.31
2022-10-17T21:37:56.923Z,102004.91
2022-10-17T21:40:58.814Z,101997.97
2022-10-17T21:44:05.850Z,101994.47
2022-10-17T21:47:07.766Z,102003.28
2022-10-17T21:50:09.988Z,101998.38
2022-10-17T21:53:11.973Z,101999.56
2022-10-17T21:56:16.114Z,101996.22
2022-10-17T21:59:18.063Z,102002.16
2022-10-17T22:02:20.301Z,101997.16
2022-10-17T22:05:22.718Z,102002.22
2022-10-17T22:08:25.747Z,101989.25
2022-10-17T22:11:32.277Z,101993.75
2022-10-17T22:14:34.165Z,101994.59
2022-10-17T22:17:36.394Z,101993.97
2022-10-17T22:20:38.423Z,101991.00
2022-10-17T22:23:41.145Z,101982.19
2022-10-17T22:26:44.477Z,101984.47
2022-10-17T22:29:46.722Z,101989.53
2022-10-17T22:32:48.626Z,101983.53
2022-10-17T22:35:50.886Z,101989.16
2022-10-17T22:38:52.897Z,101985.87
2022-10-17T22:41:55.130Z,101984.31
2022-10-17T22:44:57.309Z,101988.44
2022-10-17T22:47:59.530Z,101985.00
2022-10-17T22:51:01.575Z,101985.59
2022-10-17T22:54:03.868Z,101982.63
2022-10-17T22:57:05.792Z,101990.28
2022-10-17T23:00:09.069Z,101993.94
2022-10-17T23:03:10.927Z,101992.94
2022-10-17T23:06:13.231Z,101980.38
2022-10-17T23:09:15.185Z,101979.13
2022-10-17T23:12:17.464Z,101976.53
2022-10-17T23:15:19.372Z,101982.47
2022-10-17T23:18:22.156Z,101966.63
2022-10-17T23:21:24.229Z,101972.75
2022-10-17T23:24:26.486Z,101967.09
2022-10-17T23:27:31.442Z,101960.53
2022-10-17T23:30:33.763Z,101959.44
2022-10-17T23:33:35.638Z,101961.56
2022-10-17T23:36:38.523Z,101959.44
2022-10-17T23:39:40.436Z,101957.50
2022-10-17T23:42:42.640Z,101960.78
2022-10-17T23:45:44.588Z,101957.12
2022-10-17T23:48:46.786Z,101953.34
2022-10-17T23:51:48.759Z,101954.44
2022-10-17T23:54:50.939Z,101953.84
2022-10-17T23:57:53.124Z,101955.06
